Time;durP1;ratioP1;P1;durP2;ratioP2;P2;SDS_P1;SDS_P2;PMS_P1;PMS_P2;Temp;Humidity;BMP_temperature;BMP_pressure;BME280_temperature;BME280_humidity;BME280_pressure;Samples;Min_cycle;Max_cycle;Signal;HPM_P1;HPM_P2
2022/12/27 00:02:15;;;;;;;2.42;0.68;;;;;;;;;;5113480;28;20135;-55
2022/12/27 00:04:41;;;;;;;1.85;0.82;;;;;;;;;;5114156;28;20023;-56
2022/12/27 00:07:07;;;;;;;1.27;0.80;;;;;;;;;;5114128;28;20031;-52
2022/12/27 00:09:33;;;;;;;0.52;0.32;;;;;;;;;;5114016;28;20039;-53
2022/12/27 00:11:59;;;;;;;3.13;1.15;;;;;;;;;;5114324;28;20023;-50
2022/12/27 00:14:25;;;;;;;1.23;0.75;;;;;;;;;;5114116;28;20023;-57
2022/12/27 00:16:51;;;;;;;2.78;0.75;;;;;;;;;;5113495;28;20027;-57
2022/12/27 00:19:16;;;;;;;1.15;0.60;;;;;;;;;;5113761;28;20030;-54
2022/12/27 00:21:42;;;;;;;1.35;0.80;;;;;;;;;;5114245;28;20019;-53
2022/12/27 00:24:09;;;;;;;1.90;0.68;;;;;;;;;;5114039;28;20073;-53
2022/12/27 00:26:35;;;;;;;5.38;0.73;;;;;;;;;;5113324;28;20032;-53
2022/12/27 00:29:02;;;;;;;2.05;1.00;;;;;;;;;;5113608;28;20062;-55
2022/12/27 00:31:28;;;;;;;1.00;0.55;;;;;;;;;;5113619;28;20043;-55
2022/12/27 00:33:55;;;;;;;0.65;0.50;;;;;;;;;;5117666;28;20028;-53
2022/12/27 00:36:23;;;;;;;2.40;0.75;;;;;;;;;;5117490;28;20061;-55
2022/12/27 00:38:49;;;;;;;1.88;1.08;;;;;;;;;;5117242;28;20024;-54
2022/12/27 00:41:16;;;;;;;4.53;0.90;;;;;;;;;;5117283;28;20024;-52
2022/12/27 00:43:42;;;;;;;1.70;1.05;;;;;;;;;;5117182;28;20477;-56
2022/12/27 00:46:08;;;;;;;2.50;0.77;;;;;;;;;;5117914;28;20039;-54
2022/12/27 00:48:34;;;;;;;2.30;0.95;;;;;;;;;;5117619;28;20028;-56
2022/12/27 00:51:01;;;;;;;3.10;0.82;;;;;;;;;;5117552;28;20110;-53
2022/12/27 00:53:28;;;;;;;1.67;0.80;;;;;;;;;;5116977;28;20024;-53
2022/12/27 00:55:54;;;;;;;3.53;0.70;;;;;;;;;;5117188;28;20059;-54
2022/12/27 00:58:20;;;;;;;7.47;0.93;;;;;;;;;;5117620;28;20028;-55
2022/12/27 01:00:46;;;;;;;1.40;0.73;;;;;;;;;;5116520;28;20039;-54
2022/12/27 01:03:12;;;;;;;3.58;0.70;;;;;;;;;;5117923;28;20047;-53
2022/12/27 01:05:38;;;;;;;1.67;0.65;;;;;;;;;;5117047;28;20468;-57
2022/12/27 01:08:05;;;;;;;6.72;0.68;;;;;;;;;;5116694;28;20082;-57
2022/12/27 01:10:31;;;;;;;0.82;0.47;;;;;;;;;;5116573;28;20470;-55
2022/12/27 01:12:57;;;;;;;1.88;0.73;;;;;;;;;;5116287;28;20026;-54
2022/12/27 01:15:23;;;;;;;2.13;0.88;;;;;;;;;;5116896;28;20072;-55
2022/12/27 01:17:49;;;;;;;0.70;0.43;;;;;;;;;;5116545;28;20069;-56
2022/12/27 01:20:15;;;;;;;0.70;0.60;;;;;;;;;;5117033;28;20042;-53
2022/12/27 01:22:41;;;;;;;1.42;0.40;;;;;;;;;;5116988;28;20031;-54
2022/12/27 01:25:07;;;;;;;0.65;0.43;;;;;;;;;;5117054;28;20027;-55
2022/12/27 01:27:33;;;;;;;1.58;1.48;;;;;;;;;;5116658;28;20031;-54
2022/12/27 01:29:59;;;;;;;0.85;0.55;;;;;;;;;;5116272;28;20381;-57
2022/12/27 01:32:25;;;;;;;1.05;0.65;;;;;;;;;;5117096;28;20027;-57
2022/12/27 01:34:51;;;;;;;2.72;0.85;;;;;;;;;;5116228;28;20427;-55
2022/12/27 01:37:17;;;;;;;3.22;0.35;;;;;;;;;;5116054;28;20081;-55
2022/12/27 01:39:43;;;;;;;0.65;0.32;;;;;;;;;;5115850;28;20032;-58
2022/12/27 01:45:01;;;;;;;2.78;0.40;;;;;;;;;;5115310;28;20554;-57
2022/12/27 01:47:33;;;;;;;0.95;0.50;;;;;;;;;;5115997;28;20088;-56
2022/12/27 01:50:25;;;;;;;0.30;0.17;;;;;;;;;;5115868;28;20111;-56
2022/12/27 01:52:51;;;;;;;6.10;1.13;;;;;;;;;;5093015;28;20036;-57
2022/12/27 01:55:19;;;;;;;1.90;0.47;;;;;;;;;;5116048;28;20031;-57
2022/12/27 01:57:45;;;;;;;0.22;0.20;;;;;;;;;;5115792;28;20088;-58
2022/12/27 02:00:12;;;;;;;1.08;0.63;;;;;;;;;;5115712;28;20039;-57
2022/12/27 02:02:38;;;;;;;3.03;0.60;;;;;;;;;;5116128;28;20040;-56
2022/12/27 02:05:04;;;;;;;0.95;0.30;;;;;;;;;;5115940;28;20373;-56
2022/12/27 02:07:38;;;;;;;0.98;0.57;;;;;;;;;;5115812;28;20088;-57
2022/12/27 02:10:07;;;;;;;3.28;0.82;;;;;;;;;;5115787;28;20032;-54
2022/12/27 02:12:33;;;;;;;3.67;0.77;;;;;;;;;;5115926;28;20023;-58
2022/12/27 02:15:01;;;;;;;5.43;0.93;;;;;;;;;;5115718;28;20028;-57
2022/12/27 02:17:28;;;;;;;1.60;0.85;;;;;;;;;;5115907;28;20027;-56
2022/12/27 02:20:05;;;;;;;1.15;0.20;;;;;;;;;;5115368;28;20027;-57
2022/12/27 02:25:50;;;;;;;0.47;0.30;;;;;;;;;;5115051;28;20031;-56
2022/12/27 02:28:22;;;;;;;4.55;0.60;;;;;;;;;;5115150;28;20047;-56
2022/12/27 02:30:50;;;;;;;0.47;0.32;;;;;;;;;;5114692;28;20469;-55
2022/12/27 02:33:21;;;;;;;2.03;0.93;;;;;;;;;;5114699;28;20027;-56
2022/12/27 02:35:46;;;;;;;;;;;;;;;;;;5115758;28;20429;-54
2022/12/27 02:38:18;;;;;;;0.88;0.47;;;;;;;;;;5115258;28;19904;-56
2022/12/27 02:55:10;;;;;;;1.00;0.50;;;;;;;;;;5114919;28;20393;-53
2022/12/27 02:57:55;;;;;;;0.75;0.40;;;;;;;;;;5115151;28;20028;-55
2022/12/27 03:03:20;;;;;;;4.90;0.70;;;;;;;;;;5114775;28;20104;-55
2022/12/27 03:06:38;;;;;;;0.93;0.40;;;;;;;;;;5115038;28;20026;-56
2022/12/27 03:08:40;;;;;;;0.80;0.50;;;;;;;;;;5114210;28;20046;-55
2022/12/27 03:16:57;;;;;;;1.02;0.47;;;;;;;;;;5114777;28;20027;-55
2022/12/27 03:27:42;;;;;;;0.70;0.40;;;;;;;;;;5114587;28;20106;-54
2022/12/27 03:33:14;;;;;;;0.30;0.20;;;;;;;;;;5114275;28;20026;-52
2022/12/27 03:35:40;;;;;;;1.33;0.37;;;;;;;;;;5114527;28;20111;-54
2022/12/27 03:38:09;;;;;;;1.27;0.87;;;;;;;;;;5114127;28;20055;-53
2022/12/27 03:43:42;;;;;;;1.20;0.67;;;;;;;;;;5114156;28;20039;-56
2022/12/27 03:49:14;;;;;;;0.73;0.40;;;;;;;;;;5113855;28;20081;-56
2022/12/27 03:51:42;;;;;;;1.50;1.03;;;;;;;;;;5114043;28;20031;-55
2022/12/27 03:54:25;;;;;;;0.93;0.50;;;;;;;;;;5113985;28;20518;-54
2022/12/27 03:56:58;;;;;;;2.83;0.80;;;;;;;;;;5113867;28;20032;-56
2022/12/27 03:59:25;;;;;;;1.17;0.60;;;;;;;;;;5114108;28;20039;-56
2022/12/27 04:01:51;;;;;;;1.25;0.63;;;;;;;;;;5113728;28;20454;-53
2022/12/27 04:04:16;;;;;;;1.03;0.70;;;;;;;;;;5113914;28;20478;-55
2022/12/27 04:06:42;;;;;;;1.17;0.60;;;;;;;;;;5114748;28;20120;-53
2022/12/27 04:36:35;;;;;;;2.63;1.00;;;;;;;;;;5117515;28;20042;-56
2022/12/27 04:39:01;;;;;;;1.17;0.70;;;;;;;;;;5117472;28;20031;-55
2022/12/27 04:55:16;;;;;;;0.60;0.40;;;;;;;;;;5117143;28;20031;-55
2022/12/27 04:57:42;;;;;;;1.07;0.63;;;;;;;;;;5117408;28;20019;-55
2022/12/27 05:02:53;;;;;;;0.67;0.40;;;;;;;;;;5117237;28;20101;-56
2022/12/27 05:05:19;;;;;;;1.17;0.70;;;;;;;;;;5117739;28;20024;-56
2022/12/27 05:15:59;;;;;;;0.93;0.60;;;;;;;;;;5116816;28;20423;-55
2022/12/27 05:18:25;;;;;;;15.27;1.30;;;;;;;;;;5115360;28;20015;-56
2022/12/27 05:20:51;;;;;;;2.10;0.97;;;;;;;;;;5117137;28;20132;-56
2022/12/27 05:26:01;;;;;;;1.13;0.50;;;;;;;;;;5116964;28;20092;-56
2022/12/27 05:28:27;;;;;;;1.10;0.90;;;;;;;;;;5116746;28;20028;-56
2022/12/27 05:30:53;;;;;;;1.43;0.87;;;;;;;;;;5117106;28;20024;-56
2022/12/27 05:33:19;;;;;;;0.67;0.40;;;;;;;;;;5116352;28;20020;-54
2022/12/27 05:35:45;;;;;;;0.77;0.53;;;;;;;;;;5116685;28;20048;-51
2022/12/27 05:38:11;;;;;;;0.97;0.80;;;;;;;;;;5116551;28;20062;-51
2022/12/27 05:40:37;;;;;;;5.73;0.93;;;;;;;;;;5116267;28;20027;-50
2022/12/27 05:43:03;;;;;;;1.10;0.73;;;;;;;;;;5116543;28;20020;-53
2022/12/27 05:45:29;;;;;;;1.93;1.33;;;;;;;;;;5116676;28;20350;-54
2022/12/27 05:47:55;;;;;;;2.27;1.10;;;;;;;;;;5116668;28;20038;-54
2022/12/27 05:50:22;;;;;;;1.50;0.90;;;;;;;;;;5116441;28;20039;-52
2022/12/27 05:52:47;;;;;;;1.27;1.03;;;;;;;;;;5116516;28;20032;-54
2022/12/27 05:55:14;;;;;;;3.27;1.57;;;;;;;;;;5115930;28;20177;-54
2022/12/27 05:57:40;;;;;;;1.07;0.63;;;;;;;;;;5115825;28;20071;-51
2022/12/27 06:00:06;;;;;;;1.80;1.00;;;;;;;;;;5116613;28;20031;-52
2022/12/27 06:02:32;;;;;;;1.00;0.70;;;;;;;;;;5115917;28;20050;-53
2022/12/27 06:04:58;;;;;;;2.55;0.75;;;;;;;;;;5115819;28;20027;-54
2022/12/27 06:07:24;;;;;;;2.17;1.17;;;;;;;;;;5115749;28;20369;-54
2022/12/27 06:09:50;;;;;;;1.30;0.60;;;;;;;;;;5115595;28;20042;-54
2022/12/27 06:12:16;;;;;;;1.70;1.10;;;;;;;;;;5115518;28;20026;-56
2022/12/27 06:14:42;;;;;;;1.50;0.93;;;;;;;;;;5116059;28;20023;-56
2022/12/27 06:17:08;;;;;;;1.80;1.10;;;;;;;;;;5115415;28;20377;-56
2022/12/27 06:19:34;;;;;;;1.37;1.03;;;;;;;;;;5115404;28;20023;-56
2022/12/27 06:22:00;;;;;;;1.60;1.37;;;;;;;;;;5115606;28;20030;-56
2022/12/27 06:24:26;;;;;;;2.73;1.53;;;;;;;;;;5115936;28;20076;-56
2022/12/27 06:26:52;;;;;;;1.63;0.93;;;;;;;;;;5115285;28;20101;-55
2022/12/27 06:29:18;;;;;;;1.50;0.73;;;;;;;;;;5115132;28;20023;-54
2022/12/27 06:31:44;;;;;;;1.30;0.67;;;;;;;;;;5115141;28;20464;-56
2022/12/27 06:34:10;;;;;;;1.40;0.90;;;;;;;;;;5115225;28;20103;-56
2022/12/27 06:36:36;;;;;;;2.40;1.10;;;;;;;;;;5115083;28;20023;-56
2022/12/27 06:39:02;;;;;;;1.27;0.80;;;;;;;;;;5115356;28;20357;-56
2022/12/27 06:41:28;;;;;;;1.50;0.80;;;;;;;;;;5114965;28;20023;-55
2022/12/27 06:43:55;;;;;;;2.53;1.23;;;;;;;;;;5115354;28;20024;-53
2022/12/27 06:46:23;;;;;;;1.27;0.70;;;;;;;;;;5115511;28;20035;-52
2022/12/27 06:48:49;;;;;;;3.13;1.03;;;;;;;;;;5114909;28;20381;-53
2022/12/27 06:51:17;;;;;;;0.97;0.73;;;;;;;;;;5115344;28;20042;-54
2022/12/27 06:53:43;;;;;;;2.07;1.07;;;;;;;;;;5115559;28;20122;-51
2022/12/27 06:56:16;;;;;;;1.20;0.73;;;;;;;;;;5114884;28;20041;-54
2022/12/27 06:58:42;;;;;;;1.63;0.73;;;;;;;;;;5115262;28;20024;-52
2022/12/27 07:01:08;;;;;;;2.33;0.70;;;;;;;;;;5096506;28;20116;-56
2022/12/27 07:03:35;;;;;;;1.93;0.90;;;;;;;;;;5114103;28;20052;-54
2022/12/27 07:06:02;;;;;;;1.37;1.27;;;;;;;;;;5114938;28;20054;-55
2022/12/27 07:08:28;;;;;;;2.53;1.27;;;;;;;;;;5114593;28;20090;-55
2022/12/27 07:10:58;;;;;;;0.90;0.63;;;;;;;;;;5114206;28;20040;-51
2022/12/27 07:13:24;;;;;;;1.77;1.27;;;;;;;;;;5115066;28;20347;-54
2022/12/27 07:15:50;;;;;;;2.00;1.07;;;;;;;;;;5114780;28;20020;-51
2022/12/27 07:18:16;;;;;;;1.63;0.90;;;;;;;;;;5114730;28;20052;-51
2022/12/27 07:20:42;;;;;;;0.83;0.60;;;;;;;;;;5114103;28;20024;-51
2022/12/27 07:23:08;;;;;;;0.67;0.40;;;;;;;;;;5113951;28;20023;-56
2022/12/27 07:25:34;;;;;;;1.10;0.70;;;;;;;;;;5115082;28;20110;-54
2022/12/27 07:28:00;;;;;;;1.07;0.67;;;;;;;;;;5114220;28;20054;-51
2022/12/27 07:30:28;;;;;;;2.23;1.17;;;;;;;;;;5114500;28;20039;-54
2022/12/27 07:32:54;;;;;;;3.13;1.20;;;;;;;;;;5114635;28;20361;-55
2022/12/27 07:35:20;;;;;;;1.43;0.93;;;;;;;;;;5114145;28;20027;-55
2022/12/27 07:37:46;;;;;;;5.47;1.37;;;;;;;;;;5114601;28;20028;-55
2022/12/27 07:40:12;;;;;;;2.27;1.30;;;;;;;;;;5114133;28;20030;-53
2022/12/27 07:42:38;;;;;;;2.57;1.33;;;;;;;;;;5115783;28;20035;-54
2022/12/27 07:45:04;;;;;;;3.90;1.83;;;;;;;;;;5118642;28;20053;-56
2022/12/27 07:47:30;;;;;;;1.63;1.10;;;;;;;;;;5118285;28;20027;-55
2022/12/27 07:49:56;;;;;;;2.50;1.60;;;;;;;;;;5118811;28;20036;-52
2022/12/27 07:52:22;;;;;;;1.53;1.00;;;;;;;;;;5118311;28;20064;-51
2022/12/27 07:54:48;;;;;;;2.17;1.30;;;;;;;;;;5118913;28;20416;-52
2022/12/27 07:57:14;;;;;;;5.77;2.23;;;;;;;;;;5117971;28;20069;-54
2022/12/27 07:59:40;;;;;;;1.10;0.87;;;;;;;;;;5118160;28;20023;-52
2022/12/27 08:02:06;;;;;;;1.33;0.90;;;;;;;;;;5118345;28;20044;-53
2022/12/27 08:04:33;;;;;;;7.73;1.80;;;;;;;;;;5118356;28;20166;-52
2022/12/27 08:07:12;;;;;;;2.03;1.10;;;;;;;;;;5117977;28;20059;-54
2022/12/27 08:09:39;;;;;;;2.33;1.20;;;;;;;;;;5117922;28;20032;-50
2022/12/27 08:12:06;;;;;;;1.63;1.03;;;;;;;;;;5117877;28;20027;-53
2022/12/27 08:14:32;;;;;;;3.77;2.50;;;;;;;;;;5118195;28;20030;-55
2022/12/27 08:17:02;;;;;;;1.60;0.97;;;;;;;;;;5117964;28;20028;-53
2022/12/27 08:19:28;;;;;;;2.72;1.30;;;;;;;;;;5117979;28;20028;-56
2022/12/27 08:21:54;;;;;;;6.80;2.40;;;;;;;;;;5117817;28;20026;-54
2022/12/27 08:24:20;;;;;;;1.67;1.13;;;;;;;;;;5117949;28;20027;-57
2022/12/27 08:26:46;;;;;;;1.67;1.10;;;;;;;;;;5117596;28;20087;-55
2022/12/27 08:29:12;;;;;;;1.40;0.97;;;;;;;;;;5117165;28;20019;-53
2022/12/27 08:31:38;;;;;;;1.83;1.20;;;;;;;;;;5117427;28;20068;-55
2022/12/27 08:34:04;;;;;;;1.63;1.07;;;;;;;;;;5117486;28;20087;-56
2022/12/27 08:36:30;;;;;;;4.17;1.63;;;;;;;;;;5117122;28;20043;-55
2022/12/27 08:38:56;;;;;;;1.77;0.97;;;;;;;;;;5117442;28;20028;-55
2022/12/27 08:41:22;;;;;;;3.80;1.03;;;;;;;;;;5117658;28;20098;-57
2022/12/27 08:43:49;;;;;;;1.93;1.53;;;;;;;;;;5117288;28;20026;-55
2022/12/27 08:46:15;;;;;;;2.53;1.53;;;;;;;;;;5117360;28;20032;-58
2022/12/27 08:48:41;;;;;;;1.13;0.80;;;;;;;;;;5117271;28;20035;-56
2022/12/27 08:51:07;;;;;;;3.87;1.23;;;;;;;;;;5117261;28;20373;-58
2022/12/27 08:53:33;;;;;;;1.17;0.83;;;;;;;;;;5117169;28;20028;-55
2022/12/27 08:55:59;;;;;;;2.40;1.30;;;;;;;;;;5117026;28;20028;-57
2022/12/27 08:58:25;;;;;;;2.30;1.65;;;;;;;;;;5117034;28;20103;-57
2022/12/27 09:00:51;;;;;;;9.03;1.67;;;;;;;;;;5116954;28;20452;-56
2022/12/27 09:03:18;;;;;;;3.57;1.77;;;;;;;;;;5117382;28;20047;-55
2022/12/27 09:05:44;;;;;;;2.83;1.57;;;;;;;;;;5116876;28;20087;-54
2022/12/27 09:08:10;;;;;;;4.13;1.83;;;;;;;;;;5116764;28;20414;-55
2022/12/27 09:10:36;;;;;;;2.50;1.53;;;;;;;;;;5116674;28;20031;-57
2022/12/27 09:13:02;;;;;;;1.30;0.87;;;;;;;;;;5116654;28;20073;-54
2022/12/27 09:15:28;;;;;;;4.45;2.00;;;;;;;;;;5117014;28;20411;-56
2022/12/27 09:17:54;;;;;;;2.60;1.10;;;;;;;;;;5116591;28;20403;-56
2022/12/27 09:20:20;;;;;;;2.77;1.77;;;;;;;;;;5116293;28;20038;-56
2022/12/27 09:22:46;;;;;;;4.32;3.00;;;;;;;;;;5116958;28;20062;-54
2022/12/27 09:25:12;;;;;;;3.17;1.95;;;;;;;;;;5116385;28;20350;-57
2022/12/27 09:27:38;;;;;;;2.23;1.70;;;;;;;;;;5116462;28;20024;-57
2022/12/27 09:30:05;;;;;;;4.70;1.60;;;;;;;;;;5097992;28;20028;-57
2022/12/27 09:32:31;;;;;;;6.57;2.33;;;;;;;;;;5116300;28;20039;-55
2022/12/27 09:34:57;;;;;;;4.10;2.17;;;;;;;;;;5116589;28;20059;-55
2022/12/27 09:37:23;;;;;;;2.10;1.30;;;;;;;;;;5116223;28;20015;-56
2022/12/27 09:39:50;;;;;;;4.57;1.95;;;;;;;;;;5116493;28;20028;-56
2022/12/27 09:42:34;;;;;;;2.90;1.65;;;;;;;;;;5116093;28;20026;-54
2022/12/27 09:45:08;;;;;;;3.17;2.03;;;;;;;;;;5116395;28;20027;-56
2022/12/27 09:47:41;;;;;;;3.70;2.22;;;;;;;;;;5116612;28;20028;-57
2022/12/27 09:50:15;;;;;;;2.03;1.52;;;;;;;;;;5115943;28;20111;-53
2022/12/27 09:52:55;;;;;;;4.15;1.48;;;;;;;;;;5115889;28;20384;-55
2022/12/27 09:55:28;;;;;;;4.78;1.98;;;;;;;;;;5116509;28;20364;-57
2022/12/27 09:57:58;;;;;;;2.38;1.73;;;;;;;;;;5116358;28;20023;-57
2022/12/27 10:00:24;;;;;;;2.80;1.33;;;;;;;;;;5115853;28;20027;-58
2022/12/27 10:02:50;;;;;;;5.88;2.10;;;;;;;;;;5115889;28;20470;-53
2022/12/27 10:05:25;;;;;;;1.88;1.20;;;;;;;;;;5115380;28;20465;-56
2022/12/27 10:08:10;;;;;;;2.53;1.60;;;;;;;;;;5115943;28;20031;-56
2022/12/27 10:10:45;;;;;;;5.07;1.50;;;;;;;;;;5115812;28;20365;-56
2022/12/27 10:13:16;;;;;;;4.63;1.92;;;;;;;;;;5115596;28;20020;-55
2022/12/27 10:15:57;;;;;;;1.83;1.23;;;;;;;;;;5115804;28;20031;-55
2022/12/27 10:18:36;;;;;;;2.55;1.45;;;;;;;;;;5115482;28;20072;-52
2022/12/27 10:21:05;;;;;;;3.05;1.60;;;;;;;;;;5116010;28;20023;-52
2022/12/27 10:23:32;;;;;;;2.75;1.63;;;;;;;;;;5115942;28;20023;-57
2022/12/27 10:26:00;;;;;;;3.55;1.55;;;;;;;;;;5115884;28;20030;-57
2022/12/27 10:28:32;;;;;;;2.65;1.50;;;;;;;;;;5115299;28;20099;-57
2022/12/27 10:31:01;;;;;;;2.53;1.27;;;;;;;;;;5115271;28;20086;-58
2022/12/27 10:33:28;;;;;;;3.33;1.63;;;;;;;;;;5115164;28;20026;-58
2022/12/27 10:35:54;;;;;;;2.33;1.08;;;;;;;;;;5115468;28;20480;-57
2022/12/27 10:38:20;;;;;;;4.32;1.85;;;;;;;;;;5115257;28;20023;-53
2022/12/27 10:40:51;;;;;;;4.97;1.10;;;;;;;;;;5115036;28;20362;-58
2022/12/27 10:43:26;;;;;;;1.77;1.00;;;;;;;;;;5115320;28;20314;-58
2022/12/27 10:45:52;;;;;;;1.35;0.70;;;;;;;;;;5114991;28;20020;-57
2022/12/27 10:48:24;;;;;;;1.52;1.05;;;;;;;;;;5114631;28;20150;-56
2022/12/27 10:50:55;;;;;;;2.13;1.17;;;;;;;;;;5114562;28;20043;-58
2022/12/27 10:53:33;;;;;;;1.98;0.90;;;;;;;;;;5114823;28;20034;-58
2022/12/27 10:56:25;;;;;;;5.28;1.38;;;;;;;;;;5114521;28;20021;-58
2022/12/27 10:58:53;;;;;;;2.08;1.02;;;;;;;;;;5109627;28;20110;-59
2022/12/27 11:01:23;;;;;;;4.20;1.42;;;;;;;;;;5114433;28;20530;-56
2022/12/27 11:03:50;;;;;;;5.57;0.80;;;;;;;;;;5114659;28;20059;-57
2022/12/27 11:06:23;;;;;;;2.10;1.20;;;;;;;;;;5114649;28;20488;-58
2022/12/27 11:08:50;;;;;;;1.73;1.17;;;;;;;;;;5114911;28;20027;-56
2022/12/27 11:11:23;;;;;;;2.05;0.88;;;;;;;;;;5114478;28;20053;-56
2022/12/27 11:13:50;;;;;;;2.67;0.95;;;;;;;;;;5114427;28;20015;-57
2022/12/27 11:16:18;;;;;;;1.52;1.08;;;;;;;;;;5114254;28;20027;-56
2022/12/27 11:18:52;;;;;;;0.95;0.45;;;;;;;;;;5095831;28;20015;-58
2022/12/27 11:21:19;;;;;;;1.38;0.75;;;;;;;;;;5096223;28;20369;-58
2022/12/27 11:23:48;;;;;;;1.80;0.73;;;;;;;;;;5114001;28;20406;-55
2022/12/27 11:26:24;;;;;;;2.25;1.27;;;;;;;;;;5114161;28;20058;-54
2022/12/27 11:28:55;;;;;;;2.42;0.63;;;;;;;;;;5114581;28;20088;-57
2022/12/27 11:31:21;;;;;;;;;;;;;;;;;;5115259;28;20074;-57
2022/12/27 11:33:49;;;;;;;1.48;0.90;;;;;;;;;;5114133;28;19903;-56
2022/12/27 11:36:22;;;;;;;1.65;0.70;;;;;;;;;;5114281;28;20032;-57
2022/12/27 11:38:49;;;;;;;2.97;0.82;;;;;;;;;;5114848;28;20030;-56
2022/12/27 11:41:33;;;;;;;1.23;0.60;;;;;;;;;;5114203;28;20063;-57
2022/12/27 11:44:02;;;;;;;0.85;0.50;;;;;;;;;;5114405;28;20353;-54
2022/12/27 11:46:28;;;;;;;2.70;1.05;;;;;;;;;;5113948;28;20023;-57
2022/12/27 11:48:57;;;;;;;8.05;1.08;;;;;;;;;;5114112;28;20026;-57
2022/12/27 11:51:29;;;;;;;1.85;0.73;;;;;;;;;;5113950;28;20032;-57
2022/12/27 11:54:13;;;;;;;1.70;0.95;;;;;;;;;;5113774;28;20099;-57
2022/12/27 11:56:43;;;;;;;1.63;0.77;;;;;;;;;;5114051;28;20528;-57
2022/12/27 11:59:12;;;;;;;1.67;0.55;;;;;;;;;;5113988;28;20036;-57
2022/12/27 12:01:50;;;;;;;3.55;0.60;;;;;;;;;;5113455;28;20498;-57
2022/12/27 12:04:22;;;;;;;3.75;1.05;;;;;;;;;;5113712;28;20028;-58
2022/12/27 12:06:55;;;;;;;3.15;1.67;;;;;;;;;;5113801;28;20369;-56
2022/12/27 12:09:54;;;;;;;1.15;0.70;;;;;;;;;;5114466;28;20024;-56
2022/12/27 12:12:38;;;;;;;2.42;0.85;;;;;;;;;;5058266;28;20039;-57
2022/12/27 12:15:19;;;;;;;1.60;0.80;;;;;;;;;;5113980;28;20034;-57
2022/12/27 12:17:51;;;;;;;2.70;0.80;;;;;;;;;;5113774;28;20027;-54
2022/12/27 12:20:36;;;;;;;1.67;0.90;;;;;;;;;;5114628;28;20031;-55
2022/12/27 12:23:09;;;;;;;1.48;0.68;;;;;;;;;;5113466;28;20055;-53
2022/12/27 12:25:51;;;;;;;1.10;0.70;;;;;;;;;;5113772;28;20049;-55
2022/12/27 12:28:23;;;;;;;2.10;0.52;;;;;;;;;;5115360;28;20034;-56
2022/12/27 12:30:59;;;;;;;3.78;1.15;;;;;;;;;;5117033;28;20027;-58
2022/12/27 12:33:51;;;;;;;1.25;0.70;;;;;;;;;;5117443;28;20368;-55
2022/12/27 12:36:23;;;;;;;3.05;1.33;;;;;;;;;;5117828;28;20095;-56
2022/12/27 12:38:49;;;;;;;1.33;0.60;;;;;;;;;;5116930;28;20024;-57
2022/12/27 12:41:15;;;;;;;1.45;0.60;;;;;;;;;;5116903;28;20034;-51
2022/12/27 12:43:57;;;;;;;1.85;0.88;;;;;;;;;;5116979;28;20109;-58
2022/12/27 12:46:37;;;;;;;1.05;0.63;;;;;;;;;;5118096;28;20019;-57
2022/12/27 12:49:09;;;;;;;0.77;0.35;;;;;;;;;;5117305;28;20034;-56
2022/12/27 12:51:45;;;;;;;1.42;0.80;;;;;;;;;;5116735;28;20036;-57
2022/12/27 12:54:26;;;;;;;1.70;0.80;;;;;;;;;;5117645;28;20123;-57
2022/12/27 12:56:52;;;;;;;2.50;0.88;;;;;;;;;;5117193;28;20183;-57
2022/12/27 12:59:38;;;;;;;1.67;0.70;;;;;;;;;;5117490;28;20016;-57
2022/12/27 13:02:23;;;;;;;0.80;0.52;;;;;;;;;;5117003;28;20346;-57
2022/12/27 13:05:07;;;;;;;3.13;1.10;;;;;;;;;;5116614;28;20140;-56
2022/12/27 13:07:40;;;;;;;1.45;0.80;;;;;;;;;;5116170;28;20084;-55
2022/12/27 13:10:24;;;;;;;3.13;0.95;;;;;;;;;;5116382;28;20063;-55
2022/12/27 13:12:54;;;;;;;2.47;0.85;;;;;;;;;;5116531;28;20031;-57
2022/12/27 13:15:23;;;;;;;3.03;1.70;;;;;;;;;;5117608;28;20031;-56
2022/12/27 13:17:55;;;;;;;3.47;1.40;;;;;;;;;;5116677;28;20035;-58
2022/12/27 13:20:48;;;;;;;2.30;0.65;;;;;;;;;;5116213;28;20461;-58
2022/12/27 13:23:33;;;;;;;1.45;0.65;;;;;;;;;;5116968;28;20189;-56
2022/12/27 13:26:21;;;;;;;2.28;0.93;;;;;;;;;;5116701;28;20475;-57
2022/12/27 13:29:02;;;;;;;1.50;0.73;;;;;;;;;;5116344;28;20031;-58
2022/12/27 13:31:47;;;;;;;2.17;0.82;;;;;;;;;;5116792;28;20042;-57
2022/12/27 13:34:33;;;;;;;3.67;0.80;;;;;;;;;;5116898;28;20100;-58
2022/12/27 13:37:08;;;;;;;2.42;0.65;;;;;;;;;;5116493;28;20515;-57
2022/12/27 13:40:13;;;;;;;2.80;0.80;;;;;;;;;;5115189;28;20028;-56
2022/12/27 13:42:59;;;;;;;1.98;0.52;;;;;;;;;;5013490;28;20040;-56
2022/12/27 13:45:30;;;;;;;7.25;0.70;;;;;;;;;;5013929;28;20030;-59
2022/12/27 13:48:15;;;;;;;3.00;0.50;;;;;;;;;;5080077;28;20039;-58
2022/12/27 13:50:41;;;;;;;0.50;0.30;;;;;;;;;;5116298;28;20032;-56
2022/12/27 13:53:23;;;;;;;4.70;1.25;;;;;;;;;;5116314;28;20027;-57
2022/12/27 13:55:53;;;;;;;2.03;0.73;;;;;;;;;;5115640;28;20485;-57
2022/12/27 13:58:19;;;;;;;1.48;0.65;;;;;;;;;;5116569;28;20028;-57
2022/12/27 14:01:05;;;;;;;2.20;0.80;;;;;;;;;;5115957;28;20020;-57
2022/12/27 14:03:38;;;;;;;1.77;0.60;;;;;;;;;;5117142;28;20048;-55
2022/12/27 14:06:13;;;;;;;1.77;0.90;;;;;;;;;;5115825;28;20051;-55
2022/12/27 14:08:57;;;;;;;0.70;0.43;;;;;;;;;;5115439;28;20427;-55
2022/12/27 14:11:34;;;;;;;1.02;0.45;;;;;;;;;;5115567;28;20126;-54
2022/12/27 14:14:01;;;;;;;0.80;0.30;;;;;;;;;;5115731;28;20493;-57
2022/12/27 14:16:27;;;;;;;0.65;0.30;;;;;;;;;;5116075;28;20450;-52
2022/12/27 14:18:59;;;;;;;3.83;0.98;;;;;;;;;;5115535;28;20020;-57
2022/12/27 14:21:44;;;;;;;1.45;0.45;;;;;;;;;;5115537;28;20385;-56
2022/12/27 14:24:10;;;;;;;1.25;0.82;;;;;;;;;;5115699;28;20031;-55
2022/12/27 14:26:55;;;;;;;1.15;0.40;;;;;;;;;;5115875;28;20038;-57
2022/12/27 14:29:45;;;;;;;2.00;0.73;;;;;;;;;;5115262;28;20023;-56
2022/12/27 14:32:24;;;;;;;1.58;0.75;;;;;;;;;;5115662;28;20031;-57
2022/12/27 14:35:06;;;;;;;1.52;0.80;;;;;;;;;;5115612;28;20443;-55
2022/12/27 14:37:47;;;;;;;0.52;0.47;;;;;;;;;;5115362;28;20030;-55
2022/12/27 14:40:12;;;;;;;;;;;;;;;;;;5115174;28;20441;-58
2022/12/27 14:43:06;;;;;;;2.03;0.88;;;;;;;;;;5115041;28;19968;-57
2022/12/27 14:45:57;;;;;;;1.73;0.65;;;;;;;;;;5115006;28;20105;-52
2022/12/27 14:48:23;;;;;;;;;;;;;;;;;;5115579;28;20532;-52
2022/12/27 14:50:55;;;;;;;0.73;0.30;;;;;;;;;;5114889;28;20010;-55
2022/12/27 14:53:39;;;;;;;5.80;1.20;;;;;;;;;;5114944;28;20425;-56
2022/12/27 14:56:08;;;;;;;1.30;0.75;;;;;;;;;;5114692;28;20457;-57
2022/12/27 14:58:40;;;;;;;2.15;0.63;;;;;;;;;;5114735;28;20016;-54
2022/12/27 15:01:06;;;;;;;1.33;0.70;;;;;;;;;;5113820;28;20044;-56
2022/12/27 15:03:37;;;;;;;1.95;0.73;;;;;;;;;;5114731;28;20039;-56
2022/12/27 15:06:06;;;;;;;0.77;0.50;;;;;;;;;;5114908;28;20038;-55
2022/12/27 15:08:39;;;;;;;1.20;0.60;;;;;;;;;;5114651;28;20099;-56
2022/12/27 15:11:18;;;;;;;1.23;0.60;;;;;;;;;;5114433;28;20594;-52
2022/12/27 15:13:43;;;;;;;6.50;0.85;;;;;;;;;;5114508;28;20028;-51
2022/12/27 15:16:15;;;;;;;0.80;0.50;;;;;;;;;;5114873;28;20373;-56
2022/12/27 15:19:07;;;;;;;0.47;0.22;;;;;;;;;;5115320;28;20027;-55
2022/12/27 15:21:53;;;;;;;4.15;0.50;;;;;;;;;;5114249;28;20469;-55
2022/12/27 15:24:19;;;;;;;2.33;0.75;;;;;;;;;;5063148;28;20408;-56
2022/12/27 15:26:56;;;;;;;0.88;0.75;;;;;;;;;;5114311;28;20024;-56
2022/12/27 15:29:25;;;;;;;0.63;0.35;;;;;;;;;;5114261;28;20476;-55
2022/12/27 15:31:56;;;;;;;1.58;1.48;;;;;;;;;;5114209;28;20031;-55
2022/12/27 15:34:28;;;;;;;1.98;1.08;;;;;;;;;;5114320;28;20081;-54
2022/12/27 15:36:54;;;;;;;1.50;0.63;;;;;;;;;;5114199;28;20050;-54
2022/12/27 15:39:32;;;;;;;3.03;1.73;;;;;;;;;;5113862;28;20509;-55
2022/12/27 15:42:07;;;;;;;1.95;0.65;;;;;;;;;;5114067;28;20031;-55
2022/12/27 15:44:36;;;;;;;2.00;0.68;;;;;;;;;;5114476;28;20028;-55
2022/12/27 15:47:08;;;;;;;1.08;0.70;;;;;;;;;;5114037;28;20023;-55
2022/12/27 15:49:34;;;;;;;3.67;1.30;;;;;;;;;;5114317;28;20084;-53
2022/12/27 15:52:12;;;;;;;3.00;1.27;;;;;;;;;;5114240;28;20040;-54
2022/12/27 15:54:54;;;;;;;3.63;1.35;;;;;;;;;;5114588;28;20023;-56
2022/12/27 15:57:28;;;;;;;1.73;0.98;;;;;;;;;;5113892;28;20028;-55
2022/12/27 16:00:13;;;;;;;4.15;0.95;;;;;;;;;;5113852;28;20024;-55
2022/12/27 16:02:49;;;;;;;3.70;1.15;;;;;;;;;;5115240;28;20051;-55
2022/12/27 16:05:18;;;;;;;2.88;1.00;;;;;;;;;;5118405;28;20449;-52
2022/12/27 16:07:46;;;;;;;2.13;0.98;;;;;;;;;;5117944;28;20100;-57
2022/12/27 16:10:31;;;;;;;2.00;1.00;;;;;;;;;;5118555;28;20444;-56
2022/12/27 16:13:09;;;;;;;3.03;1.20;;;;;;;;;;5117777;28;20032;-56
2022/12/27 16:15:46;;;;;;;2.63;1.42;;;;;;;;;;5117931;28;20023;-55
2022/12/27 16:18:18;;;;;;;6.43;2.55;;;;;;;;;;5118361;28;20106;-53
2022/12/27 16:20:56;;;;;;;5.85;2.35;;;;;;;;;;5117659;28;20042;-55
2022/12/27 16:23:31;;;;;;;3.60;2.85;;;;;;;;;;5117692;28;20024;-54
2022/12/27 16:26:17;;;;;;;4.53;2.88;;;;;;;;;;5118027;28;20051;-55
2022/12/27 16:28:56;;;;;;;7.18;3.22;;;;;;;;;;5118013;28;20058;-56
2022/12/27 16:31:23;;;;;;;5.80;1.85;;;;;;;;;;5117959;28;20122;-51
2022/12/27 16:33:50;;;;;;;3.55;2.13;;;;;;;;;;5117595;28;20103;-54
2022/12/27 16:36:19;;;;;;;2.75;2.15;;;;;;;;;;5117821;28;20020;-55
2022/12/27 16:38:45;;;;;;;2.85;2.05;;;;;;;;;;5118033;28;20361;-54
2022/12/27 16:41:29;;;;;;;2.28;1.38;;;;;;;;;;5117405;28;20028;-55
2022/12/27 16:44:01;;;;;;;2.08;1.33;;;;;;;;;;5117721;28;20080;-51
2022/12/27 16:46:46;;;;;;;2.88;1.15;;;;;;;;;;5117644;28;20024;-56